createdAt,value
2019-01-08T00:01:25.081Z,5.37
2019-01-08T00:03:53.284Z,4.90
2019-01-08T00:06:21.471Z,5.70
2019-01-08T00:08:49.584Z,4.93
2019-01-08T00:11:17.772Z,5.80
2019-01-08T00:13:45.962Z,4.97
2019-01-08T00:16:14.137Z,5.77
2019-01-08T00:18:42.277Z,5.43
2019-01-08T00:21:10.394Z,6.03
2019-01-08T00:23:38.529Z,3.80
2019-01-08T00:26:06.654Z,4.23
2019-01-08T00:28:42.877Z,4.97
2019-01-08T00:31:04.600Z,4.07
2019-01-08T00:33:32.764Z,4.23
2019-01-08T00:36:00.893Z,4.63
2019-01-08T00:38:29.062Z,4.60
2019-01-08T00:40:57.202Z,4.30
2019-01-08T00:43:25.421Z,2.83
2019-01-08T00:45:53.683Z,4.43
2019-01-08T00:48:21.820Z,4.00
2019-01-08T00:50:49.995Z,3.87
2019-01-08T00:53:18.222Z,3.67
2019-01-08T00:55:46.340Z,3.43
2019-01-08T00:58:14.486Z,2.80
2019-01-08T01:00:42.601Z,2.93
2019-01-08T01:03:10.704Z,4.17
2019-01-08T01:05:38.849Z,3.60
2019-01-08T01:08:06.973Z,3.60
2019-01-08T01:10:35.130Z,3.60
2019-01-08T01:13:03.249Z,3.37
2019-01-08T01:15:31.364Z,3.13
2019-01-08T01:17:59.554Z,3.50
2019-01-08T01:20:27.781Z,3.10
2019-01-08T01:22:55.912Z,3.40
2019-01-08T01:25:24.022Z,3.47
2019-01-08T01:27:52.308Z,3.20
2019-01-08T01:30:20.429Z,3.13
2019-01-08T01:32:48.581Z,3.00
2019-01-08T01:35:16.729Z,2.80
2019-01-08T01:37:44.904Z,2.70
2019-01-08T01:40:13.019Z,3.00
2019-01-08T01:42:41.227Z,2.97
2019-01-08T01:45:09.409Z,3.10
2019-01-08T01:47:37.636Z,3.10
2019-01-08T01:50:05.754Z,2.90
2019-01-08T01:52:33.844Z,3.10
2019-01-08T01:55:02.001Z,2.70
2019-01-08T01:57:30.182Z,2.37
2019-01-08T01:59:58.426Z,3.00
2019-01-08T02:02:26.537Z,2.57
2019-01-08T02:04:55.111Z,2.90
2019-01-08T02:07:23.256Z,2.83
2019-01-08T02:09:51.352Z,3.17
2019-01-08T02:12:19.485Z,2.47
2019-01-08T02:14:47.630Z,3.00
2019-01-08T02:17:15.777Z,3.13
2019-01-08T02:19:43.905Z,3.20
2019-01-08T02:22:12.027Z,2.87
2019-01-08T02:24:40.173Z,3.13
2019-01-08T02:27:08.313Z,2.40
2019-01-08T02:29:36.425Z,2.93
2019-01-08T02:32:04.569Z,2.97
2019-01-08T02:34:32.716Z,3.20
2019-01-08T02:37:00.922Z,3.20
2019-01-08T02:39:29.044Z,3.50
2019-01-08T02:41:57.270Z,2.80
2019-01-08T02:44:25.651Z,3.17
2019-01-08T02:46:53.874Z,3.10
2019-01-08T02:49:22.181Z,2.80
2019-01-08T02:51:50.300Z,3.33
2019-01-08T02:54:18.470Z,3.27
2019-01-08T02:56:47.449Z,3.03
2019-01-08T02:59:15.612Z,3.00
2019-01-08T03:01:43.709Z,3.07
2019-01-08T03:04:11.846Z,3.43
2019-01-08T03:06:39.977Z,2.80
2019-01-08T03:09:08.117Z,3.40
2019-01-08T03:11:36.208Z,3.20
2019-01-08T03:14:04.372Z,3.03
2019-01-08T03:16:32.471Z,3.57
2019-01-08T03:19:00.621Z,3.20
2019-01-08T03:21:28.815Z,2.97
2019-01-08T03:23:56.953Z,3.67
2019-01-08T03:26:25.049Z,2.93
2019-01-08T03:28:53.181Z,3.40
2019-01-08T03:31:21.355Z,3.00
2019-01-08T03:33:49.453Z,2.90
2019-01-08T03:36:17.567Z,3.10
2019-01-08T03:38:45.721Z,2.43
2019-01-08T03:41:13.813Z,3.10
2019-01-08T03:43:41.921Z,2.40
2019-01-08T03:46:10.037Z,2.43
2019-01-08T03:48:38.173Z,2.97
2019-01-08T03:51:06.284Z,2.90
2019-01-08T03:53:34.401Z,3.20
2019-01-08T03:56:02.526Z,2.87
2019-01-08T03:58:30.669Z,2.90
2019-01-08T04:00:58.766Z,2.67
2019-01-08T04:03:26.881Z,2.80
2019-01-08T04:05:55.021Z,2.40
2019-01-08T04:08:23.120Z,2.47
2019-01-08T04:10:51.266Z,2.20
2019-01-08T04:13:19.360Z,2.80
2019-01-08T04:15:47.503Z,2.67
2019-01-08T04:18:15.625Z,2.10
2019-01-08T04:20:43.728Z,2.40
2019-01-08T04:23:11.840Z,2.40
2019-01-08T04:25:40.013Z,2.33
2019-01-08T04:28:08.134Z,2.10
2019-01-08T04:30:36.257Z,2.50
2019-01-08T04:33:04.432Z,2.70
2019-01-08T04:35:32.621Z,2.43
2019-01-08T04:38:02.301Z,2.50
2019-01-08T04:40:30.508Z,2.87
2019-01-08T04:42:58.625Z,2.20
2019-01-08T04:45:26.765Z,2.50
2019-01-08T04:47:54.875Z,2.23
2019-01-08T04:50:23.014Z,2.47
2019-01-08T04:52:51.219Z,2.40
2019-01-08T04:55:19.392Z,2.43
2019-01-08T04:57:47.541Z,2.13
2019-01-08T05:00:15.725Z,2.70
2019-01-08T05:02:43.958Z,2.23
2019-01-08T05:05:12.155Z,2.10
2019-01-08T05:07:40.279Z,2.20
2019-01-08T05:10:08.411Z,2.03
2019-01-08T05:12:36.516Z,1.13
2019-01-08T05:15:05.107Z,2.17
2019-01-08T05:17:33.208Z,1.47
2019-01-08T05:20:01.344Z,2.07
2019-01-08T05:22:29.658Z,1.90
2019-01-08T05:24:57.853Z,2.00
2019-01-08T05:27:25.979Z,1.93
2019-01-08T05:29:54.088Z,1.60
2019-01-08T05:32:22.268Z,1.70
2019-01-08T05:34:50.454Z,2.50
2019-01-08T05:37:18.544Z,1.90
2019-01-08T05:39:46.646Z,1.77
2019-01-08T05:42:14.760Z,2.17
2019-01-08T05:44:42.905Z,1.90
2019-01-08T05:47:11.035Z,2.00
2019-01-08T05:49:39.234Z,2.07
2019-01-08T05:52:07.352Z,1.60
2019-01-08T05:54:35.461Z,1.53
2019-01-08T05:57:03.600Z,2.13
2019-01-08T05:59:31.700Z,2.57
2019-01-08T06:01:59.969Z,2.53
2019-01-08T06:04:28.063Z,2.03
2019-01-08T06:06:56.235Z,1.80
2019-01-08T06:09:24.404Z,2.17
2019-01-08T06:11:52.520Z,2.47
2019-01-08T06:14:20.616Z,2.17
2019-01-08T06:16:48.771Z,2.20
2019-01-08T06:19:16.898Z,1.80
2019-01-08T06:21:45.052Z,2.07
2019-01-08T06:24:13.233Z,1.80
2019-01-08T06:26:41.344Z,1.53
2019-01-08T06:29:09.446Z,2.63
2019-01-08T06:31:37.606Z,1.43
2019-01-08T06:34:05.761Z,2.17
2019-01-08T06:36:33.852Z,1.27
2019-01-08T06:39:01.968Z,1.57
2019-01-08T06:41:30.088Z,2.47
2019-01-08T06:43:58.250Z,1.70
2019-01-08T06:46:26.453Z,2.47
2019-01-08T06:48:54.565Z,2.00
2019-01-08T06:51:22.721Z,1.70
2019-01-08T06:53:50.821Z,1.97
2019-01-08T06:56:18.925Z,2.60
2019-01-08T06:58:47.069Z,2.43
2019-01-08T07:01:15.236Z,1.87
2019-01-08T07:03:43.413Z,2.07
2019-01-08T07:06:11.570Z,1.70
2019-01-08T07:08:39.741Z,1.90
2019-01-08T07:11:07.865Z,2.20
2019-01-08T07:13:36.005Z,1.67
2019-01-08T07:16:04.180Z,1.50
2019-01-08T07:18:32.296Z,2.83
2019-01-08T07:21:00.445Z,1.90
2019-01-08T07:23:28.544Z,2.03
2019-01-08T07:25:56.697Z,2.27
2019-01-08T07:28:24.801Z,1.90
2019-01-08T07:30:52.940Z,2.17
2019-01-08T07:33:21.045Z,2.13
2019-01-08T07:35:49.140Z,1.60
2019-01-08T07:38:17.285Z,2.20
2019-01-08T07:40:45.384Z,1.53
2019-01-08T07:43:13.556Z,2.13
2019-01-08T07:45:41.758Z,1.50
2019-01-08T07:48:09.965Z,1.93
2019-01-08T07:50:38.060Z,1.37
2019-01-08T07:53:06.187Z,2.10
2019-01-08T07:55:34.329Z,1.90
2019-01-08T07:58:02.521Z,1.67
2019-01-08T08:00:30.648Z,2.13
2019-01-08T08:02:58.775Z,2.00
2019-01-08T08:05:26.922Z,3.63
2019-01-08T08:07:55.113Z,2.00
2019-01-08T08:10:23.290Z,1.77
2019-01-08T08:12:51.462Z,2.13
2019-01-08T08:15:19.569Z,2.07
2019-01-08T08:17:47.701Z,2.20
2019-01-08T08:20:15.802Z,1.53
2019-01-08T08:22:43.949Z,1.97
2019-01-08T08:25:12.109Z,1.73
2019-01-08T08:27:40.345Z,2.10
2019-01-08T08:30:08.814Z,1.90
2019-01-08T08:32:36.949Z,1.83
2019-01-08T08:35:08.667Z,1.23
2019-01-08T08:37:35.371Z,1.50
2019-01-08T08:40:04.044Z,1.67
2019-01-08T08:42:32.139Z,1.73
2019-01-08T08:45:00.335Z,1.70
2019-01-08T08:47:28.523Z,1.50
2019-01-08T08:49:56.612Z,2.07
2019-01-08T08:52:24.758Z,1.97
2019-01-08T08:54:52.908Z,1.90
2019-01-08T08:57:21.063Z,1.67
2019-01-08T08:59:49.225Z,0.70
2019-01-08T09:02:17.375Z,1.60
2019-01-08T09:04:45.549Z,1.73
2019-01-08T09:07:13.733Z,1.43
2019-01-08T09:09:41.854Z,1.53
2019-01-08T09:12:11.955Z,1.90
2019-01-08T09:14:39.872Z,2.50
2019-01-08T09:17:08.072Z,1.67
2019-01-08T09:19:36.262Z,1.63
2019-01-08T09:22:04.365Z,1.77
2019-01-08T09:24:32.477Z,0.87
2019-01-08T09:27:02.620Z,1.57
2019-01-08T09:29:31.790Z,1.77
2019-01-08T09:32:00.142Z,1.30
2019-01-08T09:34:28.277Z,1.57
2019-01-08T09:36:56.413Z,1.53
2019-01-08T09:39:24.660Z,1.50
2019-01-08T09:41:52.849Z,1.97
2019-01-08T09:44:20.994Z,1.53
2019-01-08T09:46:49.197Z,1.60
2019-01-08T09:49:17.298Z,1.53
2019-01-08T09:51:45.410Z,1.47
2019-01-08T09:54:13.529Z,1.10
2019-01-08T09:56:41.639Z,1.50
2019-01-08T09:59:09.798Z,1.57
2019-01-08T10:01:38.017Z,1.77
2019-01-08T10:04:06.225Z,1.63
2019-01-08T10:06:34.328Z,1.40
2019-01-08T10:09:02.502Z,1.70
2019-01-08T10:11:30.604Z,1.70
2019-01-08T10:13:58.747Z,1.53
2019-01-08T10:16:26.933Z,1.80
2019-01-08T10:18:55.086Z,1.60
2019-01-08T10:21:23.200Z,1.80
2019-01-08T10:23:51.337Z,1.53
2019-01-08T10:26:19.475Z,1.40
2019-01-08T10:28:47.615Z,1.30
2019-01-08T10:31:15.721Z,1.30
2019-01-08T10:33:43.832Z,1.77
2019-01-08T10:36:11.961Z,2.00
2019-01-08T10:38:40.108Z,1.97
2019-01-08T10:41:08.233Z,1.80
2019-01-08T10:43:36.334Z,1.60
2019-01-08T10:46:04.473Z,1.50
2019-01-08T10:48:32.607Z,1.60
2019-01-08T10:51:00.718Z,1.63
2019-01-08T10:53:28.841Z,1.30
2019-01-08T10:55:56.976Z,2.10
2019-01-08T10:58:25.121Z,1.60
2019-01-08T11:00:53.312Z,2.07
2019-01-08T11:03:21.433Z,1.27
2019-01-08T11:05:49.564Z,1.10
2019-01-08T11:08:17.706Z,1.40
2019-01-08T11:10:45.881Z,1.00
2019-01-08T11:13:46.267Z,1.47
2019-01-08T11:16:14.336Z,1.20
2019-01-08T11:18:52.658Z,0.93
2019-01-08T11:21:20.770Z,1.10
2019-01-08T11:23:48.893Z,1.13
2019-01-08T11:26:17.051Z,0.70
2019-01-08T11:28:45.259Z,1.50
2019-01-08T11:31:13.447Z,1.00
2019-01-08T11:33:41.606Z,0.93
2019-01-08T11:36:09.784Z,1.10
2019-01-08T11:38:37.922Z,1.17
2019-01-08T11:41:06.054Z,1.00
2019-01-08T11:43:34.192Z,1.17
2019-01-08T11:46:02.296Z,1.33
2019-01-08T11:48:30.400Z,0.90
2019-01-08T11:50:58.552Z,0.97
2019-01-08T11:53:26.752Z,0.70
2019-01-08T11:55:54.916Z,1.17
2019-01-08T11:58:23.057Z,0.73
2019-01-08T12:00:51.156Z,0.70
2019-01-08T12:03:19.301Z,0.70
2019-01-08T12:05:47.439Z,1.00
2019-01-08T12:08:15.573Z,1.00
2019-01-08T12:10:43.677Z,0.87
2019-01-08T12:13:11.822Z,0.60
2019-01-08T12:15:40.041Z,0.80
2019-01-08T12:18:08.187Z,0.50
2019-01-08T12:20:36.289Z,0.70
2019-01-08T12:23:04.400Z,0.93
2019-01-08T12:25:32.506Z,0.53
2019-01-08T12:28:00.620Z,0.70
2019-01-08T12:30:28.724Z,0.60
2019-01-08T12:32:56.873Z,0.70
2019-01-08T12:35:24.998Z,0.50
2019-01-08T12:37:53.116Z,0.70
2019-01-08T12:40:21.239Z,0.63
2019-01-08T12:42:49.366Z,0.80
2019-01-08T12:45:17.509Z,0.70
2019-01-08T12:47:45.668Z,0.80
2019-01-08T12:50:13.807Z,0.83
2019-01-08T12:52:41.969Z,1.07
2019-01-08T12:55:10.139Z,1.20
2019-01-08T12:57:38.254Z,1.43
2019-01-08T13:00:07.868Z,0.77
2019-01-08T13:02:35.978Z,0.70
2019-01-08T13:05:05.086Z,0.80
2019-01-08T13:07:33.213Z,1.33
2019-01-08T13:10:01.349Z,0.93
2019-01-08T13:12:29.460Z,1.10
2019-01-08T13:14:57.577Z,1.13
2019-01-08T13:17:25.717Z,1.47
2019-01-08T13:19:53.821Z,1.10
2019-01-08T13:22:21.952Z,0.80
2019-01-08T13:24:50.074Z,1.23
2019-01-08T13:27:18.201Z,1.03
2019-01-08T13:29:46.369Z,1.57
2019-01-08T13:32:22.944Z,1.37
2019-01-08T13:34:44.316Z,1.30
2019-01-08T13:37:12.461Z,1.30
2019-01-08T13:39:40.626Z,0.80
2019-01-08T13:42:08.727Z,1.23
2019-01-08T13:44:36.827Z,0.80
2019-01-08T13:47:04.942Z,0.90
2019-01-08T13:49:33.071Z,0.80
2019-01-08T13:52:01.172Z,0.70
2019-01-08T13:54:29.320Z,0.60
2019-01-08T13:56:57.595Z,0.60
2019-01-08T13:59:25.722Z,0.73
2019-01-08T14:01:53.924Z,0.70
2019-01-08T14:04:22.079Z,0.80
2019-01-08T14:06:50.313Z,0.70
2019-01-08T14:09:18.416Z,0.80
2019-01-08T14:11:46.548Z,0.80
2019-01-08T14:14:14.685Z,0.80
2019-01-08T14:16:42.833Z,0.93
2019-01-08T14:19:10.984Z,0.63
2019-01-08T14:21:39.155Z,0.80
2019-01-08T14:24:07.297Z,0.83
2019-01-08T14:26:35.422Z,0.63
2019-01-08T14:29:03.528Z,0.70
2019-01-08T14:31:31.680Z,0.60
2019-01-08T14:33:59.893Z,0.70
2019-01-08T14:36:28.096Z,0.90
2019-01-08T14:38:56.196Z,0.83
2019-01-08T14:41:24.303Z,0.80
2019-01-08T14:43:52.442Z,0.50
2019-01-08T14:46:20.638Z,0.80
2019-01-08T14:48:48.748Z,0.77
2019-01-08T14:51:16.900Z,0.70
2019-01-08T14:53:45.027Z,0.90
2019-01-08T14:56:13.174Z,1.03
2019-01-08T14:58:41.277Z,0.80
2019-01-08T15:01:09.477Z,0.60
2019-01-08T15:03:37.585Z,0.63
2019-01-08T15:06:05.725Z,0.70
2019-01-08T15:08:33.911Z,0.50
2019-01-08T15:11:02.013Z,1.13
2019-01-08T15:13:30.170Z,1.00
2019-01-08T15:15:58.273Z,1.20
2019-01-08T15:18:26.417Z,1.00
2019-01-08T15:20:54.547Z,0.90
2019-01-08T15:23:22.656Z,1.20
2019-01-08T15:25:51.195Z,0.93
2019-01-08T15:28:19.457Z,1.20
2019-01-08T15:30:47.559Z,1.10
2019-01-08T15:33:15.697Z,1.13
2019-01-08T15:35:43.849Z,0.80
2019-01-08T15:38:11.981Z,1.07
2019-01-08T15:40:40.129Z,0.97
2019-01-08T15:43:08.300Z,1.10
2019-01-08T15:45:36.486Z,1.00
2019-01-08T15:48:05.377Z,1.00
2019-01-08T15:50:33.645Z,1.00
2019-01-08T15:53:01.736Z,1.00
2019-01-08T15:55:29.873Z,0.67
2019-01-08T15:57:58.014Z,0.87
2019-01-08T16:00:26.157Z,0.70
2019-01-08T16:02:54.309Z,0.50
2019-01-08T16:05:22.497Z,0.73
2019-01-08T16:07:50.645Z,0.67
2019-01-08T16:10:18.785Z,1.00
2019-01-08T16:12:46.910Z,0.60
2019-01-08T16:15:15.019Z,1.53
2019-01-08T16:17:43.125Z,1.50
2019-01-08T16:20:11.281Z,1.23
2019-01-08T16:22:39.414Z,1.70
2019-01-08T16:25:07.528Z,1.70
2019-01-08T16:27:35.634Z,1.67
2019-01-08T16:30:04.851Z,1.50
2019-01-08T16:32:32.969Z,1.90
2019-01-08T16:35:01.102Z,1.87
2019-01-08T16:37:29.221Z,1.17
2019-01-08T16:39:57.365Z,0.90
2019-01-08T16:42:25.498Z,0.97
2019-01-08T16:44:53.738Z,1.20
2019-01-08T16:47:21.842Z,1.00
2019-01-08T16:49:49.989Z,1.07
2019-01-08T16:52:18.186Z,1.00
2019-01-08T16:54:46.358Z,1.20
2019-01-08T16:57:14.481Z,1.00
2019-01-08T16:59:42.609Z,0.90
2019-01-08T17:02:13.301Z,0.80
2019-01-08T17:04:41.416Z,1.20
2019-01-08T17:07:09.610Z,1.20
2019-01-08T17:09:37.733Z,1.37
2019-01-08T17:12:05.881Z,0.97
2019-01-08T17:14:34.010Z,1.30
2019-01-08T17:17:02.153Z,1.07
2019-01-08T17:19:30.265Z,0.77
2019-01-08T17:21:58.485Z,1.10
2019-01-08T17:24:26.704Z,1.00
2019-01-08T17:26:54.977Z,1.33
2019-01-08T17:29:23.316Z,1.10
2019-01-08T17:31:51.431Z,1.20
2019-01-08T17:34:19.522Z,1.23
2019-01-08T17:36:47.678Z,1.27
2019-01-08T17:39:15.840Z,1.40
2019-01-08T17:41:43.993Z,1.00
2019-01-08T17:44:12.117Z,1.10
2019-01-08T17:46:40.228Z,1.40
2019-01-08T17:49:08.337Z,1.23
2019-01-08T17:51:36.445Z,1.33
2019-01-08T17:54:04.631Z,1.13
2019-01-08T17:56:32.847Z,1.20
2019-01-08T17:59:02.672Z,1.40
2019-01-08T18:01:30.844Z,1.10
2019-01-08T18:03:58.958Z,1.13
2019-01-08T18:06:27.089Z,1.23
2019-01-08T18:08:55.318Z,0.97
2019-01-08T18:11:23.473Z,1.00
2019-01-08T18:13:51.616Z,1.27
2019-01-08T18:16:19.749Z,1.30
2019-01-08T18:18:47.855Z,1.27
2019-01-08T18:21:16.030Z,1.00
2019-01-08T18:23:44.241Z,0.87
2019-01-08T18:26:12.396Z,1.50
2019-01-08T18:28:40.575Z,1.20
2019-01-08T18:31:08.941Z,1.37
2019-01-08T18:33:37.078Z,1.37
2019-01-08T18:36:05.209Z,1.23
2019-01-08T18:38:33.345Z,0.87
2019-01-08T18:41:01.489Z,1.20
2019-01-08T18:43:29.588Z,1.40
2019-01-08T18:45:57.770Z,1.00
2019-01-08T18:48:25.932Z,1.10
2019-01-08T18:50:54.035Z,1.22
2019-01-08T18:53:22.181Z,1.07
2019-01-08T18:55:50.396Z,1.27
2019-01-08T18:58:18.524Z,1.33
2019-01-08T19:03:27.385Z,1.20
2019-01-08T19:05:55.493Z,1.10
2019-01-08T19:08:25.148Z,1.33
2019-01-08T19:10:53.294Z,1.10
2019-01-08T19:13:21.435Z,1.00
2019-01-08T19:15:49.610Z,0.90
2019-01-08T19:18:17.750Z,0.97
2019-01-08T19:20:45.857Z,1.20
2019-01-08T19:23:13.990Z,1.00
2019-01-08T19:25:42.204Z,1.17
2019-01-08T19:28:10.362Z,1.13
2019-01-08T19:30:39.369Z,0.77
2019-01-08T19:33:07.505Z,1.20
2019-01-08T19:35:35.679Z,1.20
2019-01-08T19:38:03.828Z,1.70
2019-01-08T19:40:32.128Z,1.00
2019-01-08T19:43:00.296Z,1.07
2019-01-08T19:45:28.384Z,1.20
2019-01-08T19:47:56.573Z,1.17
2019-01-08T19:50:24.696Z,1.20
2019-01-08T19:52:52.795Z,1.40
2019-01-08T19:55:22.672Z,1.20
2019-01-08T19:57:50.873Z,2.43
2019-01-08T20:00:19.157Z,16.00
2019-01-08T20:02:47.420Z,4.13
2019-01-08T20:05:15.594Z,4.77
2019-01-08T20:07:43.724Z,1.33
2019-01-08T20:10:11.865Z,2.60
2019-01-08T20:12:39.993Z,1.33
2019-01-08T20:15:08.578Z,1.23
2019-01-08T20:17:36.797Z,1.10
2019-01-08T20:20:05.691Z,1.17
2019-01-08T20:22:33.793Z,1.47
2019-01-08T20:25:01.915Z,1.20
2019-01-08T20:27:30.029Z,0.90
2019-01-08T20:29:58.227Z,1.40
2019-01-08T20:32:26.441Z,0.40
2019-01-08T20:34:54.634Z,0.83
2019-01-08T20:37:22.885Z,1.10
2019-01-08T20:39:51.133Z,0.83
2019-01-08T20:42:19.346Z,1.50
2019-01-08T20:44:47.453Z,1.07
2019-01-08T20:47:16.378Z,1.10
2019-01-08T20:49:44.509Z,1.10
2019-01-08T20:52:12.650Z,1.00
2019-01-08T20:54:40.865Z,0.97
2019-01-08T20:57:09.511Z,0.90
2019-01-08T20:59:37.788Z,1.07
2019-01-08T21:02:05.972Z,2.27
2019-01-08T21:04:35.663Z,0.80
2019-01-08T21:07:04.117Z,1.47
2019-01-08T21:09:32.265Z,0.97
2019-01-08T21:12:00.407Z,0.93
2019-01-08T21:14:28.617Z,2.37
2019-01-08T21:16:56.716Z,1.00
2019-01-08T21:19:27.048Z,0.73
2019-01-08T21:21:55.193Z,1.03
2019-01-08T21:24:28.543Z,0.90
2019-01-08T21:26:53.191Z,0.80
2019-01-08T21:29:21.309Z,0.83
2019-01-08T21:31:49.465Z,0.77
2019-01-08T21:34:17.676Z,0.80
2019-01-08T21:36:45.905Z,0.80
2019-01-08T21:39:14.111Z,0.90
2019-01-08T21:41:42.369Z,0.73
2019-01-08T21:44:10.584Z,0.87
2019-01-08T21:46:38.737Z,0.97
2019-01-08T21:49:06.865Z,0.67
2019-01-08T21:51:35.034Z,0.67
2019-01-08T21:54:03.275Z,1.27
2019-01-08T21:56:31.397Z,1.23
2019-01-08T21:58:59.534Z,1.70
2019-01-08T22:01:27.692Z,0.90
2019-01-08T22:03:55.832Z,1.07
2019-01-08T22:06:24.051Z,0.70
2019-01-08T22:08:52.243Z,1.10
2019-01-08T22:11:20.436Z,0.73
2019-01-08T22:13:48.587Z,1.00
2019-01-08T22:16:16.721Z,0.90
2019-01-08T22:18:44.940Z,0.40
2019-01-08T22:21:13.246Z,1.00
2019-01-08T22:23:41.424Z,1.37
2019-01-08T22:26:09.582Z,1.00
2019-01-08T22:28:37.786Z,0.73
2019-01-08T22:31:05.898Z,0.60
2019-01-08T22:33:34.037Z,0.87
2019-01-08T22:36:02.199Z,0.90
2019-01-08T22:38:30.404Z,0.90
2019-01-08T22:40:58.618Z,0.70
2019-01-08T22:43:26.852Z,0.70
2019-01-08T22:45:54.984Z,1.17
2019-01-08T22:48:23.105Z,0.60
2019-01-08T22:50:51.230Z,0.90
2019-01-08T22:53:19.415Z,0.70
2019-01-08T22:55:47.582Z,0.73
2019-01-08T22:58:15.768Z,0.70
2019-01-08T23:00:52.375Z,0.60
2019-01-08T23:03:21.624Z,0.57
2019-01-08T23:05:51.590Z,0.60
2019-01-08T23:08:19.682Z,0.70
2019-01-08T23:10:47.797Z,0.37
2019-01-08T23:13:15.900Z,0.50
2019-01-08T23:15:44.000Z,0.60
2019-01-08T23:18:12.123Z,0.70
2019-01-08T23:20:40.257Z,0.63
2019-01-08T23:23:08.410Z,0.80
2019-01-08T23:25:36.551Z,0.50
2019-01-08T23:28:04.691Z,0.97
2019-01-08T23:30:32.860Z,0.40
2019-01-08T23:33:01.077Z,0.53
2019-01-08T23:35:29.277Z,0.40
2019-01-08T23:37:57.373Z,0.47
2019-01-08T23:40:25.566Z,0.40
2019-01-08T23:42:53.789Z,0.30
2019-01-08T23:45:21.972Z,0.40
2019-01-08T23:48:07.588Z,0.47
2019-01-08T23:50:35.770Z,0.50
2019-01-08T23:53:05.448Z,0.30
2019-01-08T23:55:35.100Z,0.50
2019-01-08T23:58:03.326Z,0.70
